sensor_id;sensor_type;location;lat;lon;timestamp;P1;durP1;ratioP1;P2;durP2;ratioP2
16173;SDS011;14031;50.158;8.626;2023-03-24T00:01:21;3.97;;;3.67;;
16173;SDS011;14031;50.158;8.626;2023-03-24T00:03:50;4.20;;;3.90;;
16173;SDS011;14031;50.158;8.626;2023-03-24T00:06:17;7.87;;;4.07;;
16173;SDS011;14031;50.158;8.626;2023-03-24T00:08:46;4.20;;;3.90;;
16173;SDS011;14031;50.158;8.626;2023-03-24T00:11:13;4.37;;;4.03;;
16173;SDS011;14031;50.158;8.626;2023-03-24T00:13:42;4.40;;;4.00;;
16173;SDS011;14031;50.158;8.626;2023-03-24T00:16:12;3.73;;;3.53;;
16173;SDS011;14031;50.158;8.626;2023-03-24T00:18:41;3.93;;;3.60;;
16173;SDS011;14031;50.158;8.626;2023-03-24T00:21:09;3.60;;;3.30;;
16173;SDS011;14031;50.158;8.626;2023-03-24T00:23:37;3.97;;;3.73;;
16173;SDS011;14031;50.158;8.626;2023-03-24T00:26:08;3.80;;;3.50;;
16173;SDS011;14031;50.158;8.626;2023-03-24T00:28:40;3.43;;;3.20;;
16173;SDS011;14031;50.158;8.626;2023-03-24T00:31:08;3.47;;;3.27;;
16173;SDS011;14031;50.158;8.626;2023-03-24T00:33:35;3.50;;;3.30;;
16173;SDS011;14031;50.158;8.626;2023-03-24T00:36:05;3.67;;;3.30;;
16173;SDS011;14031;50.158;8.626;2023-03-24T00:38:37;5.10;;;3.50;;
16173;SDS011;14031;50.158;8.626;2023-03-24T00:41:06;3.77;;;3.47;;
16173;SDS011;14031;50.158;8.626;2023-03-24T00:43:34;4.23;;;3.60;;
16173;SDS011;14031;50.158;8.626;2023-03-24T00:46:02;3.70;;;3.27;;
16173;SDS011;14031;50.158;8.626;2023-03-24T00:48:32;3.67;;;3.47;;
16173;SDS011;14031;50.158;8.626;2023-03-24T00:50:59;3.97;;;3.77;;
16173;SDS011;14031;50.158;8.626;2023-03-24T00:53:28;3.73;;;3.43;;
16173;SDS011;14031;50.158;8.626;2023-03-24T00:55:56;3.40;;;3.20;;
16173;SDS011;14031;50.158;8.626;2023-03-24T00:58:24;3.93;;;3.63;;
16173;SDS011;14031;50.158;8.626;2023-03-24T01:00:55;4.07;;;3.87;;
16173;SDS011;14031;50.158;8.626;2023-03-24T01:03:23;5.13;;;3.23;;
16173;SDS011;14031;50.158;8.626;2023-03-24T01:05:51;4.20;;;3.33;;
16173;SDS011;14031;50.158;8.626;2023-03-24T01:08:22;3.53;;;3.23;;
16173;SDS011;14031;50.158;8.626;2023-03-24T01:10:50;3.90;;;3.50;;
16173;SDS011;14031;50.158;8.626;2023-03-24T01:13:21;3.57;;;3.27;;
16173;SDS011;14031;50.158;8.626;2023-03-24T01:15:49;3.77;;;3.40;;
16173;SDS011;14031;50.158;8.626;2023-03-24T01:18:17;3.30;;;3.00;;
16173;SDS011;14031;50.158;8.626;2023-03-24T01:20:45;3.83;;;3.53;;
16173;SDS011;14031;50.158;8.626;2023-03-24T01:23:14;3.73;;;3.43;;
16173;SDS011;14031;50.158;8.626;2023-03-24T01:25:43;3.73;;;3.47;;
16173;SDS011;14031;50.158;8.626;2023-03-24T01:28:12;3.47;;;3.17;;
16173;SDS011;14031;50.158;8.626;2023-03-24T01:30:42;3.13;;;2.93;;
16173;SDS011;14031;50.158;8.626;2023-03-24T01:33:09;2.93;;;2.73;;
16173;SDS011;14031;50.158;8.626;2023-03-24T01:35:36;3.60;;;3.30;;
16173;SDS011;14031;50.158;8.626;2023-03-24T01:38:04;3.10;;;2.90;;
16173;SDS011;14031;50.158;8.626;2023-03-24T01:40:33;3.40;;;3.10;;
16173;SDS011;14031;50.158;8.626;2023-03-24T01:43:01;4.30;;;2.73;;
16173;SDS011;14031;50.158;8.626;2023-03-24T01:48:24;2.90;;;2.70;;
16173;SDS011;14031;50.158;8.626;2023-03-24T01:50:56;3.23;;;2.80;;
16173;SDS011;14031;50.158;8.626;2023-03-24T01:53:26;3.33;;;3.03;;
16173;SDS011;14031;50.158;8.626;2023-03-24T01:55:55;2.97;;;2.73;;
16173;SDS011;14031;50.158;8.626;2023-03-24T01:58:23;3.37;;;3.17;;
16173;SDS011;14031;50.158;8.626;2023-03-24T02:00:53;3.53;;;3.00;;
16173;SDS011;14031;50.158;8.626;2023-03-24T02:03:23;5.87;;;3.03;;
16173;SDS011;14031;50.158;8.626;2023-03-24T02:05:54;4.50;;;4.10;;
16173;SDS011;14031;50.158;8.626;2023-03-24T02:08:27;2.70;;;2.60;;
16173;SDS011;14031;50.158;8.626;2023-03-24T02:10:58;3.10;;;2.90;;
16173;SDS011;14031;50.158;8.626;2023-03-24T02:13:26;3.47;;;3.17;;
16173;SDS011;14031;50.158;8.626;2023-03-24T02:15:56;4.47;;;3.50;;
16173;SDS011;14031;50.158;8.626;2023-03-24T02:18:39;2.97;;;2.80;;
16173;SDS011;14031;50.158;8.626;2023-03-24T02:27:50;4.07;;;3.67;;
16173;SDS011;14031;50.158;8.626;2023-03-24T02:40:15;4.30;;;4.00;;
16173;SDS011;14031;50.158;8.626;2023-03-24T02:42:51;8.53;;;4.23;;
16173;SDS011;14031;50.158;8.626;2023-03-24T02:45:26;4.57;;;4.27;;
16173;SDS011;14031;50.158;8.626;2023-03-24T02:48:12;4.67;;;4.27;;
16173;SDS011;14031;50.158;8.626;2023-03-24T02:50:48;4.67;;;4.27;;
16173;SDS011;14031;50.158;8.626;2023-03-24T02:53:21;5.77;;;4.40;;
16173;SDS011;14031;50.158;8.626;2023-03-24T02:55:58;4.77;;;4.20;;
16173;SDS011;14031;50.158;8.626;2023-03-24T02:58:30;4.93;;;4.47;;
16173;SDS011;14031;50.158;8.626;2023-03-24T03:01:04;4.77;;;4.30;;
16173;SDS011;14031;50.158;8.626;2023-03-24T03:03:37;4.30;;;4.00;;
16173;SDS011;14031;50.158;8.626;2023-03-24T03:06:08;4.63;;;4.33;;
16173;SDS011;14031;50.158;8.626;2023-03-24T03:08:40;4.70;;;4.30;;
16173;SDS011;14031;50.158;8.626;2023-03-24T03:11:11;4.50;;;4.10;;
16173;SDS011;14031;50.158;8.626;2023-03-24T03:13:41;4.37;;;3.97;;
16173;SDS011;14031;50.158;8.626;2023-03-24T03:16:15;4.67;;;4.27;;
16173;SDS011;14031;50.158;8.626;2023-03-24T03:18:47;4.87;;;4.27;;
16173;SDS011;14031;50.158;8.626;2023-03-24T03:21:17;4.97;;;4.20;;
16173;SDS011;14031;50.158;8.626;2023-03-24T03:23:46;4.53;;;3.87;;
16173;SDS011;14031;50.158;8.626;2023-03-24T03:26:18;4.47;;;4.17;;
16173;SDS011;14031;50.158;8.626;2023-03-24T03:28:49;5.47;;;4.30;;
16173;SDS011;14031;50.158;8.626;2023-03-24T03:31:23;4.10;;;3.80;;
16173;SDS011;14031;50.158;8.626;2023-03-24T03:33:55;4.10;;;3.90;;
16173;SDS011;14031;50.158;8.626;2023-03-24T03:36:29;4.70;;;4.30;;
16173;SDS011;14031;50.158;8.626;2023-03-24T03:39:00;4.30;;;4.10;;
16173;SDS011;14031;50.158;8.626;2023-03-24T03:41:33;7.73;;;4.30;;
16173;SDS011;14031;50.158;8.626;2023-03-24T03:44:00;4.43;;;4.03;;
16173;SDS011;14031;50.158;8.626;2023-03-24T03:46:27;4.73;;;3.83;;
16173;SDS011;14031;50.158;8.626;2023-03-24T03:48:54;4.47;;;3.97;;
16173;SDS011;14031;50.158;8.626;2023-03-24T03:51:21;4.53;;;4.13;;
16173;SDS011;14031;50.158;8.626;2023-03-24T03:53:49;7.23;;;4.00;;
16173;SDS011;14031;50.158;8.626;2023-03-24T03:56:18;5.43;;;4.13;;
16173;SDS011;14031;50.158;8.626;2023-03-24T03:58:48;4.83;;;4.13;;
16173;SDS011;14031;50.158;8.626;2023-03-24T04:01:17;4.30;;;4.00;;
16173;SDS011;14031;50.158;8.626;2023-03-24T04:03:52;5.00;;;4.57;;
16173;SDS011;14031;50.158;8.626;2023-03-24T04:06:45;4.73;;;4.33;;
16173;SDS011;14031;50.158;8.626;2023-03-24T04:09:24;4.70;;;4.40;;
16173;SDS011;14031;50.158;8.626;2023-03-24T04:12:10;4.60;;;4.30;;
16173;SDS011;14031;50.158;8.626;2023-03-24T04:15:02;5.07;;;4.27;;
16173;SDS011;14031;50.158;8.626;2023-03-24T04:17:51;4.37;;;3.97;;
16173;SDS011;14031;50.158;8.626;2023-03-24T04:20:36;4.77;;;4.27;;
16173;SDS011;14031;50.158;8.626;2023-03-24T04:23:13;4.83;;;4.53;;
16173;SDS011;14031;50.158;8.626;2023-03-24T04:25:50;6.13;;;4.40;;
16173;SDS011;14031;50.158;8.626;2023-03-24T04:28:27;5.43;;;4.90;;
16173;SDS011;14031;50.158;8.626;2023-03-24T04:31:03;5.33;;;4.83;;
16173;SDS011;14031;50.158;8.626;2023-03-24T04:33:40;6.47;;;5.27;;
16173;SDS011;14031;50.158;8.626;2023-03-24T04:36:15;4.53;;;4.23;;
16173;SDS011;14031;50.158;8.626;2023-03-24T04:38:51;6.70;;;4.70;;
16173;SDS011;14031;50.158;8.626;2023-03-24T04:41:21;4.90;;;4.50;;
16173;SDS011;14031;50.158;8.626;2023-03-24T04:43:50;5.07;;;4.77;;
16173;SDS011;14031;50.158;8.626;2023-03-24T04:46:20;5.57;;;5.17;;
16173;SDS011;14031;50.158;8.626;2023-03-24T04:48:48;5.30;;;5.00;;
16173;SDS011;14031;50.158;8.626;2023-03-24T04:51:15;5.50;;;5.10;;
16173;SDS011;14031;50.158;8.626;2023-03-24T04:53:43;5.20;;;4.77;;
16173;SDS011;14031;50.158;8.626;2023-03-24T04:56:25;5.30;;;4.80;;
16173;SDS011;14031;50.158;8.626;2023-03-24T04:58:56;5.53;;;5.10;;
16173;SDS011;14031;50.158;8.626;2023-03-24T05:01:24;5.30;;;4.90;;
16173;SDS011;14031;50.158;8.626;2023-03-24T05:03:54;8.30;;;5.13;;
16173;SDS011;14031;50.158;8.626;2023-03-24T05:06:21;5.33;;;5.00;;
16173;SDS011;14031;50.158;8.626;2023-03-24T05:08:48;5.60;;;4.90;;
16173;SDS011;14031;50.158;8.626;2023-03-24T05:11:16;4.77;;;4.47;;
16173;SDS011;14031;50.158;8.626;2023-03-24T05:13:43;5.10;;;4.80;;
16173;SDS011;14031;50.158;8.626;2023-03-24T05:16:10;5.50;;;4.33;;
16173;SDS011;14031;50.158;8.626;2023-03-24T05:18:39;4.60;;;4.20;;
16173;SDS011;14031;50.158;8.626;2023-03-24T05:21:05;4.20;;;3.80;;
16173;SDS011;14031;50.158;8.626;2023-03-24T05:23:32;4.50;;;4.20;;
16173;SDS011;14031;50.158;8.626;2023-03-24T05:25:59;6.80;;;4.70;;
16173;SDS011;14031;50.158;8.626;2023-03-24T05:28:26;4.43;;;4.23;;
16173;SDS011;14031;50.158;8.626;2023-03-24T05:30:53;4.40;;;4.20;;
16173;SDS011;14031;50.158;8.626;2023-03-24T05:33:20;4.90;;;4.50;;
16173;SDS011;14031;50.158;8.626;2023-03-24T05:35:48;5.00;;;4.70;;
16173;SDS011;14031;50.158;8.626;2023-03-24T05:38:15;4.93;;;4.50;;
16173;SDS011;14031;50.158;8.626;2023-03-24T05:40:42;5.60;;;5.10;;
16173;SDS011;14031;50.158;8.626;2023-03-24T05:43:09;5.43;;;5.13;;
16173;SDS011;14031;50.158;8.626;2023-03-24T05:45:36;5.80;;;5.20;;
16173;SDS011;14031;50.158;8.626;2023-03-24T05:48:03;5.70;;;5.33;;
16173;SDS011;14031;50.158;8.626;2023-03-24T05:50:30;6.00;;;5.50;;
16173;SDS011;14031;50.158;8.626;2023-03-24T05:52:58;5.43;;;4.93;;
16173;SDS011;14031;50.158;8.626;2023-03-24T05:55:25;5.63;;;5.23;;
16173;SDS011;14031;50.158;8.626;2023-03-24T05:57:52;5.60;;;5.20;;
16173;SDS011;14031;50.158;8.626;2023-03-24T06:00:19;5.53;;;4.50;;
16173;SDS011;14031;50.158;8.626;2023-03-24T06:02:47;4.77;;;4.47;;
16173;SDS011;14031;50.158;8.626;2023-03-24T06:05:14;5.93;;;4.77;;
16173;SDS011;14031;50.158;8.626;2023-03-24T06:07:41;4.67;;;4.37;;
16173;SDS011;14031;50.158;8.626;2023-03-24T06:10:10;4.67;;;4.37;;
16173;SDS011;14031;50.158;8.626;2023-03-24T06:12:38;4.33;;;4.10;;
16173;SDS011;14031;50.158;8.626;2023-03-24T06:15:05;6.80;;;4.77;;
16173;SDS011;14031;50.158;8.626;2023-03-24T06:17:33;5.00;;;4.60;;
16173;SDS011;14031;50.158;8.626;2023-03-24T06:20:01;4.80;;;4.40;;
16173;SDS011;14031;50.158;8.626;2023-03-24T06:22:30;4.57;;;4.27;;
16173;SDS011;14031;50.158;8.626;2023-03-24T06:24:58;3.90;;;3.67;;
16173;SDS011;14031;50.158;8.626;2023-03-24T06:27:27;4.67;;;4.30;;
16173;SDS011;14031;50.158;8.626;2023-03-24T06:29:55;4.10;;;3.90;;
16173;SDS011;14031;50.158;8.626;2023-03-24T06:32:21;3.90;;;3.60;;
16173;SDS011;14031;50.158;8.626;2023-03-24T06:34:49;4.30;;;4.00;;
16173;SDS011;14031;50.158;8.626;2023-03-24T06:37:16;3.60;;;3.40;;
16173;SDS011;14031;50.158;8.626;2023-03-24T06:39:42;2.93;;;2.83;;
16173;SDS011;14031;50.158;8.626;2023-03-24T06:42:10;3.67;;;3.47;;
16173;SDS011;14031;50.158;8.626;2023-03-24T06:44:38;2.90;;;2.70;;
16173;SDS011;14031;50.158;8.626;2023-03-24T06:47:05;2.80;;;2.60;;
16173;SDS011;14031;50.158;8.626;2023-03-24T06:49:32;2.60;;;2.50;;
16173;SDS011;14031;50.158;8.626;2023-03-24T06:52:01;3.97;;;2.30;;
16173;SDS011;14031;50.158;8.626;2023-03-24T06:54:28;2.47;;;2.37;;
16173;SDS011;14031;50.158;8.626;2023-03-24T06:56:55;3.73;;;2.00;;
16173;SDS011;14031;50.158;8.626;2023-03-24T06:59:21;2.33;;;2.23;;
16173;SDS011;14031;50.158;8.626;2023-03-24T07:01:50;3.77;;;2.40;;
16173;SDS011;14031;50.158;8.626;2023-03-24T07:04:17;2.50;;;2.40;;
16173;SDS011;14031;50.158;8.626;2023-03-24T07:06:44;2.10;;;2.00;;
16173;SDS011;14031;50.158;8.626;2023-03-24T07:09:11;2.90;;;2.73;;
16173;SDS011;14031;50.158;8.626;2023-03-24T07:11:38;2.47;;;2.33;;
16173;SDS011;14031;50.158;8.626;2023-03-24T07:14:05;2.57;;;2.40;;
16173;SDS011;14031;50.158;8.626;2023-03-24T07:16:32;2.63;;;2.53;;
16173;SDS011;14031;50.158;8.626;2023-03-24T07:19:00;4.70;;;2.50;;
16173;SDS011;14031;50.158;8.626;2023-03-24T07:21:27;2.47;;;2.37;;
16173;SDS011;14031;50.158;8.626;2023-03-24T07:23:54;2.50;;;2.40;;
16173;SDS011;14031;50.158;8.626;2023-03-24T07:26:20;2.90;;;2.70;;
16173;SDS011;14031;50.158;8.626;2023-03-24T07:28:47;3.60;;;2.70;;
16173;SDS011;14031;50.158;8.626;2023-03-24T07:31:14;2.77;;;2.67;;
16173;SDS011;14031;50.158;8.626;2023-03-24T07:33:41;5.57;;;3.10;;
16173;SDS011;14031;50.158;8.626;2023-03-24T07:36:09;2.97;;;2.80;;
16173;SDS011;14031;50.158;8.626;2023-03-24T07:38:36;3.27;;;3.07;;
16173;SDS011;14031;50.158;8.626;2023-03-24T07:41:03;3.20;;;3.00;;
16173;SDS011;14031;50.158;8.626;2023-03-24T07:43:30;3.10;;;2.90;;
16173;SDS011;14031;50.158;8.626;2023-03-24T07:45:57;3.33;;;3.00;;
16173;SDS011;14031;50.158;8.626;2023-03-24T07:48:24;3.40;;;3.20;;
16173;SDS011;14031;50.158;8.626;2023-03-24T07:50:51;3.90;;;3.60;;
16173;SDS011;14031;50.158;8.626;2023-03-24T07:53:20;3.50;;;3.30;;
16173;SDS011;14031;50.158;8.626;2023-03-24T07:55:47;3.37;;;3.20;;
16173;SDS011;14031;50.158;8.626;2023-03-24T07:58:13;3.50;;;3.20;;
16173;SDS011;14031;50.158;8.626;2023-03-24T08:00:40;4.00;;;3.70;;
16173;SDS011;14031;50.158;8.626;2023-03-24T08:03:08;3.50;;;3.20;;
16173;SDS011;14031;50.158;8.626;2023-03-24T08:05:38;3.23;;;3.13;;
16173;SDS011;14031;50.158;8.626;2023-03-24T08:08:05;3.70;;;3.50;;
16173;SDS011;14031;50.158;8.626;2023-03-24T08:10:33;3.77;;;3.57;;
16173;SDS011;14031;50.158;8.626;2023-03-24T08:13:00;3.47;;;3.27;;
16173;SDS011;14031;50.158;8.626;2023-03-24T08:15:27;3.83;;;3.40;;
16173;SDS011;14031;50.158;8.626;2023-03-24T08:17:54;3.87;;;3.67;;
16173;SDS011;14031;50.158;8.626;2023-03-24T08:20:21;3.70;;;3.50;;
16173;SDS011;14031;50.158;8.626;2023-03-24T08:22:49;3.23;;;3.03;;
16173;SDS011;14031;50.158;8.626;2023-03-24T08:25:19;3.30;;;3.10;;
16173;SDS011;14031;50.158;8.626;2023-03-24T08:27:48;4.10;;;3.80;;
16173;SDS011;14031;50.158;8.626;2023-03-24T08:30:16;3.73;;;3.43;;
16173;SDS011;14031;50.158;8.626;2023-03-24T08:32:44;4.17;;;3.87;;
16173;SDS011;14031;50.158;8.626;2023-03-24T08:35:12;4.23;;;3.93;;
16173;SDS011;14031;50.158;8.626;2023-03-24T08:37:40;3.60;;;3.40;;
16173;SDS011;14031;50.158;8.626;2023-03-24T08:40:09;3.90;;;3.60;;
16173;SDS011;14031;50.158;8.626;2023-03-24T08:42:38;3.93;;;3.63;;
16173;SDS011;14031;50.158;8.626;2023-03-24T08:45:07;4.03;;;3.70;;
16173;SDS011;14031;50.158;8.626;2023-03-24T08:47:36;3.97;;;3.67;;
16173;SDS011;14031;50.158;8.626;2023-03-24T08:50:04;3.87;;;3.57;;
16173;SDS011;14031;50.158;8.626;2023-03-24T08:52:32;3.47;;;3.17;;
16173;SDS011;14031;50.158;8.626;2023-03-24T08:54:59;4.10;;;3.80;;
16173;SDS011;14031;50.158;8.626;2023-03-24T08:57:26;3.50;;;3.20;;
16173;SDS011;14031;50.158;8.626;2023-03-24T08:59:52;3.77;;;3.57;;
16173;SDS011;14031;50.158;8.626;2023-03-24T09:02:21;3.43;;;3.10;;
16173;SDS011;14031;50.158;8.626;2023-03-24T09:04:48;3.77;;;3.57;;
16173;SDS011;14031;50.158;8.626;2023-03-24T09:07:17;3.13;;;2.93;;
16173;SDS011;14031;50.158;8.626;2023-03-24T09:09:44;3.03;;;2.93;;
16173;SDS011;14031;50.158;8.626;2023-03-24T09:12:11;3.10;;;2.33;;
16173;SDS011;14031;50.158;8.626;2023-03-24T09:14:38;1.90;;;1.80;;
16173;SDS011;14031;50.158;8.626;2023-03-24T09:17:05;2.13;;;1.93;;
16173;SDS011;14031;50.158;8.626;2023-03-24T09:19:33;2.00;;;1.77;;
16173;SDS011;14031;50.158;8.626;2023-03-24T09:22:00;2.00;;;1.43;;
16173;SDS011;14031;50.158;8.626;2023-03-24T09:24:27;1.60;;;1.43;;
16173;SDS011;14031;50.158;8.626;2023-03-24T09:26:53;1.40;;;1.40;;
16173;SDS011;14031;50.158;8.626;2023-03-24T09:29:20;1.23;;;1.23;;
16173;SDS011;14031;50.158;8.626;2023-03-24T09:31:47;1.20;;;1.20;;
16173;SDS011;14031;50.158;8.626;2023-03-24T09:34:14;1.00;;;1.00;;
16173;SDS011;14031;50.158;8.626;2023-03-24T09:36:42;1.50;;;1.37;;
16173;SDS011;14031;50.158;8.626;2023-03-24T09:39:09;2.37;;;1.07;;
16173;SDS011;14031;50.158;8.626;2023-03-24T09:41:36;0.73;;;0.73;;
16173;SDS011;14031;50.158;8.626;2023-03-24T09:44:03;0.63;;;0.63;;
16173;SDS011;14031;50.158;8.626;2023-03-24T09:46:38;0.90;;;0.90;;
16173;SDS011;14031;50.158;8.626;2023-03-24T09:49:10;3.80;;;0.80;;
16173;SDS011;14031;50.158;8.626;2023-03-24T09:51:43;1.33;;;0.87;;
16173;SDS011;14031;50.158;8.626;2023-03-24T09:54:13;2.70;;;1.00;;
16173;SDS011;14031;50.158;8.626;2023-03-24T09:56:44;1.27;;;0.90;;
16173;SDS011;14031;50.158;8.626;2023-03-24T09:59:14;0.60;;;0.60;;
16173;SDS011;14031;50.158;8.626;2023-03-24T10:01:43;0.73;;;0.70;;
16173;SDS011;14031;50.158;8.626;2023-03-24T10:04:12;1.00;;;0.93;;
16173;SDS011;14031;50.158;8.626;2023-03-24T10:06:43;1.07;;;0.80;;
16173;SDS011;14031;50.158;8.626;2023-03-24T10:09:21;1.90;;;0.60;;
16173;SDS011;14031;50.158;8.626;2023-03-24T10:11:50;0.87;;;0.70;;
16173;SDS011;14031;50.158;8.626;2023-03-24T10:14:33;1.87;;;1.00;;
16173;SDS011;14031;50.158;8.626;2023-03-24T10:17:13;1.97;;;0.93;;
16173;SDS011;14031;50.158;8.626;2023-03-24T10:19:47;1.20;;;0.80;;
16173;SDS011;14031;50.158;8.626;2023-03-24T10:22:23;1.50;;;1.10;;
16173;SDS011;14031;50.158;8.626;2023-03-24T10:24:57;0.67;;;0.60;;
16173;SDS011;14031;50.158;8.626;2023-03-24T10:27:29;1.97;;;1.10;;
16173;SDS011;14031;50.158;8.626;2023-03-24T10:30:02;1.00;;;0.90;;
16173;SDS011;14031;50.158;8.626;2023-03-24T10:32:36;1.00;;;1.00;;
16173;SDS011;14031;50.158;8.626;2023-03-24T10:35:06;1.87;;;1.10;;
16173;SDS011;14031;50.158;8.626;2023-03-24T10:37:42;0.97;;;0.90;;
16173;SDS011;14031;50.158;8.626;2023-03-24T10:40:14;2.63;;;1.10;;
16173;SDS011;14031;50.158;8.626;2023-03-24T10:42:43;1.13;;;0.80;;
16173;SDS011;14031;50.158;8.626;2023-03-24T10:45:24;2.10;;;0.90;;
16173;SDS011;14031;50.158;8.626;2023-03-24T10:47:56;1.63;;;1.10;;
16173;SDS011;14031;50.158;8.626;2023-03-24T10:50:25;2.47;;;1.10;;
16173;SDS011;14031;50.158;8.626;2023-03-24T10:52:55;1.37;;;1.23;;
16173;SDS011;14031;50.158;8.626;2023-03-24T10:55:23;1.83;;;1.10;;
16173;SDS011;14031;50.158;8.626;2023-03-24T10:57:56;4.20;;;1.40;;
16173;SDS011;14031;50.158;8.626;2023-03-24T11:00:25;1.00;;;1.00;;
16173;SDS011;14031;50.158;8.626;2023-03-24T11:02:55;2.47;;;1.03;;
16173;SDS011;14031;50.158;8.626;2023-03-24T11:05:25;1.60;;;1.30;;
16173;SDS011;14031;50.158;8.626;2023-03-24T11:07:58;5.73;;;1.40;;
16173;SDS011;14031;50.158;8.626;2023-03-24T11:10:36;3.37;;;1.10;;
16173;SDS011;14031;50.158;8.626;2023-03-24T11:13:03;2.47;;;1.20;;
16173;SDS011;14031;50.158;8.626;2023-03-24T11:15:33;1.27;;;1.00;;
16173;SDS011;14031;50.158;8.626;2023-03-24T11:18:06;1.20;;;1.20;;
16173;SDS011;14031;50.158;8.626;2023-03-24T11:20:40;1.50;;;1.20;;
16173;SDS011;14031;50.158;8.626;2023-03-24T11:23:12;3.97;;;1.13;;
16173;SDS011;14031;50.158;8.626;2023-03-24T11:25:44;4.10;;;1.30;;
16173;SDS011;14031;50.158;8.626;2023-03-24T11:28:15;1.10;;;1.00;;
16173;SDS011;14031;50.158;8.626;2023-03-24T11:30:46;2.07;;;1.20;;
16173;SDS011;14031;50.158;8.626;2023-03-24T11:33:17;2.60;;;1.33;;
16173;SDS011;14031;50.158;8.626;2023-03-24T11:35:46;1.10;;;1.10;;
16173;SDS011;14031;50.158;8.626;2023-03-24T11:38:16;1.33;;;0.73;;
16173;SDS011;14031;50.158;8.626;2023-03-24T11:40:53;1.30;;;1.03;;
16173;SDS011;14031;50.158;8.626;2023-03-24T11:43:23;3.27;;;1.07;;
16173;SDS011;14031;50.158;8.626;2023-03-24T11:45:52;2.77;;;1.10;;
16173;SDS011;14031;50.158;8.626;2023-03-24T11:48:26;2.07;;;1.10;;
16173;SDS011;14031;50.158;8.626;2023-03-24T11:50:58;1.07;;;0.97;;
16173;SDS011;14031;50.158;8.626;2023-03-24T11:53:30;0.93;;;0.90;;
16173;SDS011;14031;50.158;8.626;2023-03-24T11:56:05;1.37;;;1.07;;
16173;SDS011;14031;50.158;8.626;2023-03-24T11:58:38;2.50;;;1.10;;
16173;SDS011;14031;50.158;8.626;2023-03-24T12:01:10;2.43;;;1.00;;
16173;SDS011;14031;50.158;8.626;2023-03-24T12:06:44;3.60;;;0.90;;
16173;SDS011;14031;50.158;8.626;2023-03-24T12:09:23;1.70;;;0.97;;
16173;SDS011;14031;50.158;8.626;2023-03-24T12:12:05;2.63;;;1.10;;
16173;SDS011;14031;50.158;8.626;2023-03-24T12:14:52;1.00;;;1.00;;
16173;SDS011;14031;50.158;8.626;2023-03-24T12:17:30;0.93;;;0.93;;
16173;SDS011;14031;50.158;8.626;2023-03-24T12:20:04;3.10;;;0.85;;
16173;SDS011;14031;50.158;8.626;2023-03-24T12:22:42;1.00;;;1.00;;
16173;SDS011;14031;50.158;8.626;2023-03-24T12:28:41;1.75;;;0.70;;
16173;SDS011;14031;50.158;8.626;2023-03-24T12:31:23;1.08;;;0.90;;
16173;SDS011;14031;50.158;8.626;2023-03-24T12:34:07;2.08;;;0.93;;
16173;SDS011;14031;50.158;8.626;2023-03-24T12:36:45;1.42;;;0.90;;
16173;SDS011;14031;50.158;8.626;2023-03-24T12:39:20;2.67;;;0.93;;
16173;SDS011;14031;50.158;8.626;2023-03-24T12:41:56;1.75;;;1.27;;
16173;SDS011;14031;50.158;8.626;2023-03-24T12:44:37;3.45;;;1.30;;
16173;SDS011;14031;50.158;8.626;2023-03-24T12:50:25;3.05;;;1.27;;
16173;SDS011;14031;50.158;8.626;2023-03-24T12:53:09;3.45;;;0.90;;
16173;SDS011;14031;50.158;8.626;2023-03-24T12:55:47;2.92;;;0.93;;
16173;SDS011;14031;50.158;8.626;2023-03-24T12:58:20;1.02;;;0.90;;
16173;SDS011;14031;50.158;8.626;2023-03-24T13:00:55;2.42;;;1.00;;
16173;SDS011;14031;50.158;8.626;2023-03-24T13:03:27;1.58;;;1.48;;
16173;SDS011;14031;50.158;8.626;2023-03-24T13:06:02;0.85;;;0.80;;
16173;SDS011;14031;50.158;8.626;2023-03-24T13:08:36;1.98;;;1.30;;
16173;SDS011;14031;50.158;8.626;2023-03-24T13:11:05;3.08;;;1.05;;
16173;SDS011;14031;50.158;8.626;2023-03-24T13:13:37;7.93;;;1.15;;
16173;SDS011;14031;50.158;8.626;2023-03-24T13:16:10;3.40;;;1.02;;
16173;SDS011;14031;50.158;8.626;2023-03-24T13:18:42;2.47;;;1.27;;
16173;SDS011;14031;50.158;8.626;2023-03-24T13:21:13;3.38;;;1.08;;
16173;SDS011;14031;50.158;8.626;2023-03-24T13:23:45;1.08;;;0.68;;
16173;SDS011;14031;50.158;8.626;2023-03-24T13:26:21;2.67;;;1.02;;
16173;SDS011;14031;50.158;8.626;2023-03-24T13:28:55;1.10;;;1.00;;
16173;SDS011;14031;50.158;8.626;2023-03-24T13:31:32;3.35;;;1.00;;
16173;SDS011;14031;50.158;8.626;2023-03-24T13:34:04;2.80;;;1.00;;
16173;SDS011;14031;50.158;8.626;2023-03-24T13:36:40;2.30;;;1.00;;
16173;SDS011;14031;50.158;8.626;2023-03-24T13:39:11;1.83;;;0.95;;
16173;SDS011;14031;50.158;8.626;2023-03-24T13:41:45;3.10;;;0.98;;
16173;SDS011;14031;50.158;8.626;2023-03-24T13:44:16;2.20;;;1.33;;
16173;SDS011;14031;50.158;8.626;2023-03-24T13:46:59;1.15;;;0.90;;
16173;SDS011;14031;50.158;8.626;2023-03-24T13:49:30;1.20;;;1.10;;
16173;SDS011;14031;50.158;8.626;2023-03-24T13:52:00;3.00;;;0.90;;
16173;SDS011;14031;50.158;8.626;2023-03-24T13:54:30;1.83;;;1.10;;
16173;SDS011;14031;50.158;8.626;2023-03-24T13:57:02;2.20;;;1.10;;
16173;SDS011;14031;50.158;8.626;2023-03-24T13:59:32;1.58;;;0.60;;
16173;SDS011;14031;50.158;8.626;2023-03-24T14:02:09;3.40;;;0.90;;
16173;SDS011;14031;50.158;8.626;2023-03-24T14:04:44;4.07;;;1.20;;
16173;SDS011;14031;50.158;8.626;2023-03-24T14:07:28;4.07;;;1.10;;
16173;SDS011;14031;50.158;8.626;2023-03-24T14:10:22;2.28;;;1.10;;
16173;SDS011;14031;50.158;8.626;2023-03-24T14:13:03;2.45;;;1.60;;
16173;SDS011;14031;50.158;8.626;2023-03-24T14:15:43;1.40;;;1.30;;
16173;SDS011;14031;50.158;8.626;2023-03-24T14:18:23;2.03;;;1.10;;
16173;SDS011;14031;50.158;8.626;2023-03-24T14:21:07;2.38;;;1.23;;
16173;SDS011;14031;50.158;8.626;2023-03-24T14:23:36;2.63;;;1.23;;
16173;SDS011;14031;50.158;8.626;2023-03-24T14:26:05;3.63;;;1.10;;
16173;SDS011;14031;50.158;8.626;2023-03-24T14:28:39;2.78;;;1.27;;
16173;SDS011;14031;50.158;8.626;2023-03-24T14:31:07;2.03;;;1.20;;
16173;SDS011;14031;50.158;8.626;2023-03-24T14:33:44;1.02;;;0.90;;
16173;SDS011;14031;50.158;8.626;2023-03-24T14:36:28;1.35;;;1.25;;
16173;SDS011;14031;50.158;8.626;2023-03-24T14:38:56;2.65;;;1.17;;
16173;SDS011;14031;50.158;8.626;2023-03-24T14:41:35;1.85;;;1.13;;
16173;SDS011;14031;50.158;8.626;2023-03-24T14:44:05;3.05;;;1.30;;
16173;SDS011;14031;50.158;8.626;2023-03-24T14:46:36;1.33;;;1.20;;
16173;SDS011;14031;50.158;8.626;2023-03-24T14:49:10;1.77;;;1.20;;
16173;SDS011;14031;50.158;8.626;2023-03-24T14:51:51;3.00;;;1.08;;
16173;SDS011;14031;50.158;8.626;2023-03-24T14:54:27;1.92;;;1.00;;
16173;SDS011;14031;50.158;8.626;2023-03-24T14:56:59;6.28;;;0.98;;
16173;SDS011;14031;50.158;8.626;2023-03-24T14:59:34;2.58;;;1.00;;
16173;SDS011;14031;50.158;8.626;2023-03-24T15:02:10;2.42;;;1.05;;
16173;SDS011;14031;50.158;8.626;2023-03-24T15:07:44;1.40;;;0.82;;
16173;SDS011;14031;50.158;8.626;2023-03-24T15:10:13;3.72;;;1.10;;
16173;SDS011;14031;50.158;8.626;2023-03-24T15:12:42;1.30;;;0.95;;
16173;SDS011;14031;50.158;8.626;2023-03-24T15:15:13;2.08;;;1.15;;
16173;SDS011;14031;50.158;8.626;2023-03-24T15:17:42;2.92;;;1.40;;
16173;SDS011;14031;50.158;8.626;2023-03-24T15:20:20;3.33;;;1.27;;
16173;SDS011;14031;50.158;8.626;2023-03-24T15:22:49;3.47;;;1.45;;
16173;SDS011;14031;50.158;8.626;2023-03-24T15:25:19;2.75;;;1.15;;
16173;SDS011;14031;50.158;8.626;2023-03-24T15:27:51;5.10;;;1.50;;
16173;SDS011;14031;50.158;8.626;2023-03-24T15:30:19;4.00;;;1.30;;
16173;SDS011;14031;50.158;8.626;2023-03-24T15:32:46;1.73;;;0.90;;
16173;SDS011;14031;50.158;8.626;2023-03-24T15:35:15;1.63;;;1.08;;
16173;SDS011;14031;50.158;8.626;2023-03-24T15:37:48;3.78;;;1.10;;
16173;SDS011;14031;50.158;8.626;2023-03-24T15:40:36;1.58;;;1.23;;
16173;SDS011;14031;50.158;8.626;2023-03-24T15:43:05;1.77;;;1.38;;